createdAt,value
2018-05-11T00:01:14.395Z,100799.33
2018-05-11T00:03:39.973Z,100791.09
2018-05-11T00:06:05.724Z,100792.37
2018-05-11T00:08:31.373Z,100797.63
2018-05-11T00:10:56.934Z,100800.53
2018-05-11T00:13:22.626Z,100803.30
2018-05-11T00:15:48.214Z,100805.12
2018-05-11T00:18:13.835Z,100804.20
2018-05-11T00:20:39.926Z,100806.55
2018-05-11T00:23:05.484Z,100798.70
2018-05-11T00:25:31.115Z,100796.13
2018-05-11T00:27:56.922Z,100792.29
2018-05-11T00:30:22.549Z,100798.89
2018-05-11T00:32:48.427Z,100783.98
2018-05-11T00:35:14.122Z,100786.72
2018-05-11T00:37:39.745Z,100793.27
2018-05-11T00:40:05.312Z,100785.52
2018-05-11T00:42:31.082Z,100787.98
2018-05-11T00:44:56.649Z,100790.22
2018-05-11T00:47:22.214Z,100796.30
2018-05-11T00:49:48.024Z,100793.87
2018-05-11T00:52:13.606Z,100785.84
2018-05-11T00:54:39.499Z,100792.00
2018-05-11T00:57:05.242Z,100794.04
2018-05-11T00:59:30.808Z,100793.95
2018-05-11T01:01:58.727Z,100790.80
2018-05-11T01:04:24.589Z,100792.11
2018-05-11T01:06:50.196Z,100790.94
2018-05-11T01:09:15.823Z,100783.28
2018-05-11T01:11:41.673Z,100791.77
2018-05-11T01:14:07.284Z,100786.31
2018-05-11T01:16:33.041Z,100783.00
2018-05-11T01:18:58.916Z,100789.61
2018-05-11T01:21:24.584Z,100788.02
2018-05-11T01:23:50.199Z,100786.52
2018-05-11T01:26:15.919Z,100784.96
2018-05-11T01:28:41.476Z,100794.95
2018-05-11T01:31:07.053Z,100793.05
2018-05-11T01:33:33.160Z,100792.89
2018-05-11T01:35:58.781Z,100794.15
2018-05-11T01:38:24.404Z,100800.09
2018-05-11T01:40:50.275Z,100797.20
2018-05-11T01:43:15.851Z,100790.28
2018-05-11T01:45:41.508Z,100793.19
